Aérodrome :







RETROUVEZ-NOUS SUR...

 
LOGIN :

S'inscrire | Disclaimer

   EN    FR    IT 

 









Légende :    VFR   VFR Marginal   IFR   IFR Intensif   IFR Très Intensif
Visi : 
Plafond : 
>= 8 km
>= 3000ft
5 à 8 km
1000 à 3000 ft
1500m à 5 km
500 à 1000 ft
800 à 1500m
200 à 500 ft
< 800m
< 200 ft
Symboles :   Orages  Brouillard  Fortes neiges  Fortes précipitations  Vent > 20 kt






- Altitude de l'aérodrome : 1663 ft
- Code IATA : SLK


KSLK - Adirondack Regional

DERNIER METAR :
  • 241651Z AUTO 24015G19KT 10SM CLR 08/M04 A2985 RMK AO2 SLP125 T00781039

METARs EXPIRÉS :
  • 241551Z AUTO 23012G19KT 10SM CLR 07/M05 A2987 RMK AO2 RAE1452 SLP130 P0000 T00671050
  • 241451Z AUTO 23012G25KT 10SM -RA CLR 05/M06 A2988 RMK AO2 RAB42 SLP134 P0000 60000 T00501061 51005

TAF KSLK
Valide du 24 à 18h jusqu'au 25 à 18h UTC


241734Z 2418/2518 23012G20KT P6SM FEW200
FM242300 VRB03KT P6SM BKN180
FM251300 00000KT P6SM BKN100
FM251400 00000KT P6SM OVC100



MET'MAP, la Météo Aéronautique d'un coup d'oeil ! - Copyright ORBIFLY Décembre 2007 - Disclaimer

ORBIFLY MET'MAP TEAM :

Programmation & Développement : Alexandra Zaïnal
Sur une idée originale de : Baudouin d'Aumeries
Assistance à la programmation : Marc-Olivier Méhu
Soutien technique & logistique : Manuel Goepfert

Contact : metmap@orbifly.com




SOURCES & CREDITS :

   NOAA